Flight Track Log - Related Links

Times and Time Zones

All times are in EDT time to prevent confusion due to time zone crossing. See the AAL1326 flight status page for this flight to view local times or setup timezone preferences in your user account.

Time Position Orientation Groundspeed Altitude Reporting Facility
EDT Latitude Longitude Course Direction KTS MPH feet Rate Location/Type
Fri 06:55:26 PM 41.9440 -87.9080 182° South 162 186 1,900  Level FlightAware ADS-B
Fri 06:55:36 PM 41.9360 -87.9100 191° South 170 196 2,400 1,600 Climbing FlightAware ADS-B
Fri 06:56:11 PM 41.9050 -87.9040 172° South 216 249 3,100 1,333 Climbing FlightAware ADS-B
Fri 06:56:21 PM 41.8940 -87.9010 169° South 225 259 3,400 1,950 Climbing FlightAware ADS-B
Fri 06:56:51 PM 41.8600 -87.8940 171° South 254 292 4,400 2,300 Climbing FlightAware ADS-B
Fri 06:57:21 PM 41.8250 -87.8830 167° South 272 313 5,700 2,727 Climbing FlightAware ADS-B
Fri 06:57:46 PM 41.7950 -87.8710 163° South 274 315 6,900 2,836 Climbing FlightAware ADS-B
Fri 06:58:16 PM 41.7560 -87.8550 163° South 279 321 8,300 2,300 Climbing FlightAware ADS-B
Fri 06:58:46 PM 41.7170 -87.8390 163° South 299 344 9,200 2,314 Climbing FlightAware ADS-B
Fri 06:59:26 PM 41.6670 -87.8200 164° South 297 342 11,000 2,850 Climbing FlightAware ADS-B
Fri 07:00:06 PM 41.6130 -87.7990 164° South 302 348 13,000 2,188 Climbing FlightAware ADS-B
Fri 07:00:51 PM 41.5490 -87.7750 164° South 346 398 14,100 1,624 Climbing FlightAware ADS-B
Fri 07:01:31 PM 41.4840 -87.7500 164° South 377 434 15,300 2,329 Climbing FlightAware ADS-B
Fri 07:02:16 PM 41.4020 -87.7260 168° South 383 441 17,400 2,682 Climbing FlightAware ADS-B
Fri 07:02:56 PM 41.3320 -87.7250 179° South 387 445 19,100 2,550 Climbing FlightAware ADS-B
Fri 07:03:36 PM 41.2580 -87.7260 181° South 396 456 20,800 2,118 Climbing FlightAware ADS-B
Fri 07:04:21 PM 41.1780 -87.7230 178° South 419 482 22,100 2,188 Climbing FlightAware ADS-B
Fri 07:05:01 PM 41.0980 -87.7100 173° South 422 486 23,900 2,400 Climbing FlightAware ADS-B
Fri 07:05:46 PM 41.0130 -87.6740 162° South 432 497 25,500 1,694 Climbing FlightAware ADS-B
Fri 07:06:26 PM 40.9350 -87.6390 161° South 452 520 26,300 1,125 Climbing FlightAware ADS-B
Fri 07:07:06 PM 40.8610 -87.6050 161° South 465 535 27,000 1,129 Climbing FlightAware ADS-B
Fri 07:07:51 PM 40.7710 -87.5630 161° South 477 549 27,900 1,200 Climbing FlightAware ADS-B
Fri 07:08:26 PM 40.7040 -87.5330 161° South 483 556 28,600 1,600 Climbing FlightAware ADS-B
Fri 07:09:06 PM 40.6030 -87.4870 161° South 485 558 29,900 2,047 Climbing FlightAware ADS-B
Fri 07:09:51 PM 40.5160 -87.4480 161° South 470 541 31,500 2,000 Climbing FlightAware ADS-B
Fri 07:10:36 PM 40.4250 -87.4070 161° South 461 531 32,900 1,000 Climbing FlightAware ADS-B
Fri 07:11:21 PM 40.3290 -87.3650 162° South 454 522 33,000 75 Climbing FlightAware ADS-B
Fri 07:11:56 PM 40.2700 -87.3380 161° South 454 522 33,000 212 Level FlightAware ADS-B
Fri 07:12:46 PM 40.1660 -87.2910 161° South 455 524 33,300 1,067 Climbing FlightAware ADS-B
Fri 07:13:26 PM 40.0860 -87.2550 161° South 447 514 34,600 1,725 Climbing FlightAware ADS-B
Fri 07:14:06 PM 40.0040 -87.2190 161° South 437 503 35,600 1,050 Climbing FlightAware ADS-B
Fri 07:14:46 PM 39.9290 -87.1870 162° South 441 507 36,000 282 Climbing FlightAware ADS-B
Fri 07:15:31 PM 39.8420 -87.1480 161° South 448 516 36,000  Level FlightAware ADS-B
Fri 07:16:16 PM 39.7510 -87.1080 161° South 448 516 36,000  Level FlightAware ADS-B
Fri 07:16:56 PM 39.6710 -87.0730 161° South 447 514 36,000  Level FlightAware ADS-B
Fri 07:17:51 PM 39.5660 -87.0270 161° South 443 510 36,000  Level FlightAware ADS-B
Fri 07:18:36 PM 39.4770 -86.9880 161° South 438 504 36,000  Level FlightAware ADS-B
Fri 07:19:16 PM 39.4010 -86.9550 161° South 434 499 36,000  Level FlightAware ADS-B
Fri 07:20:01 PM 39.3130 -86.9170 162° South 441 507 36,000 141 Level FlightAware ADS-B
Fri 07:20:41 PM 39.2360 -86.8840 162° South 442 509 36,200 375 Climbing FlightAware ADS-B
Fri 07:21:21 PM 39.1610 -86.8480 160° South 457 526 36,500 494 Climbing FlightAware ADS-B
Fri 07:22:06 PM 39.0720 -86.7890 153° Southeast 469 540 36,900 353 Climbing FlightAware ADS-B
Fri 07:22:46 PM 38.9970 -86.7480 157° South 454 522 37,000 75 Climbing FlightAware ADS-B
Fri 07:23:26 PM 38.9160 -86.7110 160° South 449 517 37,000  Level FlightAware ADS-B
Fri 07:24:11 PM 38.8280 -86.6710 160° South 448 516 37,000  Level FlightAware ADS-B
Fri 07:24:51 PM 38.7500 -86.6360 161° South 448 516 37,000  Level FlightAware ADS-B
Fri 07:25:36 PM 38.6600 -86.5960 161° South 448 516 37,000  Level FlightAware ADS-B
Fri 07:26:16 PM 38.5830 -86.5610 160° South 448 516 37,000  Level FlightAware ADS-B
Fri 07:27:01 PM 38.4970 -86.5230 161° South 448 516 37,000  Level FlightAware ADS-B
Fri 07:27:41 PM 38.4180 -86.4860 160° South 449 517 37,000  Level FlightAware ADS-B
Fri 07:28:21 PM 38.3490 -86.4550 161° South 449 517 37,000  Level FlightAware ADS-B
Fri 07:29:06 PM 38.2500 -86.4090 160° South 447 514 37,000  Level FlightAware ADS-B
Fri 07:29:46 PM 38.1750 -86.3760 161° South 445 512 37,000  Level FlightAware ADS-B
Fri 07:30:31 PM 38.0870 -86.3360 160° South 443 510 37,000  Level FlightAware ADS-B
Fri 07:31:11 PM 38.0090 -86.3000 160° South 442 509 37,000  Level FlightAware ADS-B
Fri 07:31:51 PM 37.9330 -86.2660 161° South 440 506 37,000  Level FlightAware ADS-B
Fri 07:32:36 PM 37.8450 -86.2260 160° South 439 505 37,000  Level FlightAware ADS-B
Fri 07:33:16 PM 37.7690 -86.1920 161° South 439 505 37,000  Level FlightAware ADS-B
Fri 07:34:01 PM 37.6840 -86.1540 161° South 438 504 37,000  Level FlightAware ADS-B
Fri 07:34:41 PM 37.6090 -86.1290 165° South 410 472 37,000  Level FlightAware ADS-B
Fri 07:35:21 PM 37.5300 -86.1120 170° South 429 494 37,000  Level FlightAware ADS-B
Fri 07:36:06 PM 37.4480 -86.0820 164° South 427 491 37,000  Level FlightAware ADS-B
Fri 07:36:46 PM 37.3720 -86.0530 163° South 424 488 37,000  Level FlightAware ADS-B
Fri 07:37:26 PM 37.2970 -86.0280 165° South 406 467 37,000  Level FlightAware ADS-B
Fri 07:38:06 PM 37.2178 -86.0179 174° South 402 463 37,000  Level FlightAware ADS-B
Fri 07:38:39 PM 37.1576 -86.0098 174° South 402 463 37,000  Level FlightAware ADS-B
Fri 07:39:36 PM 37.0550 -85.9960 174° South 408 470 37,000  Level FlightAware ADS-B
Fri 07:40:16 PM 36.9800 -85.9860 174° South 407 468 37,000  Level FlightAware ADS-B
Fri 07:40:56 PM 36.9050 -85.9660 168° South 426 490 37,000  Level FlightAware ADS-B
Fri 07:41:23 PM 36.8507 -85.9409 160° South 431 496 37,000  Level FlightAware ADS-B
Fri 07:41:53 PM 36.7941 -85.9139 159° South 428 493 37,000  Level FlightAware ADS-B
Fri 07:42:23 PM 36.7385 -85.8875 159° South 427 491 37,000  Level FlightAware ADS-B
Fri 07:42:54 PM 36.6830 -85.8614 159° South 425 489 37,000  Level FlightAware ADS-B
Fri 07:43:46 PM 36.5970 -85.8200 159° South 423 487 37,000  Level FlightAware ADS-B
Fri 07:44:16 PM 36.5316 -85.7901 160° South 424 488 37,000  Level FlightAware ADS-B
Fri 07:44:47 PM 36.4764 -85.7643 159° South 423 487 37,000  Level FlightAware ADS-B
Fri 07:45:17 PM 36.4201 -85.7379 159° South 426 490 37,000  Level FlightAware ADS-B
Fri 07:45:50 PM 36.3591 -85.7093 159° South 425 489 37,000  Level FlightAware ADS-B
Fri 07:46:30 PM 36.2860 -85.6751 159° South 425 489 37,000  Level FlightAware ADS-B
Fri 07:47:01 PM 36.2290 -85.6486 159° South 425 489 37,000  Level FlightAware ADS-B
Fri 07:47:31 PM 36.1734 -85.6227 159° South 427 491 37,000  Level FlightAware ADS-B
Fri 07:48:11 PM 36.1080 -85.5920 159° South 428 493 37,000  Level FlightAware ADS-B
Fri 07:48:30 PM 36.0648 -85.5722 160° South 428 493 37,000  Level FlightAware ADS-B
Fri 07:49:02 PM 36.0053 -85.5446 159° South 430 495 37,000  Level FlightAware ADS-B
Fri 07:49:32 PM 35.9479 -85.5182 160° South 429 494 37,000  Level FlightAware ADS-B
Fri 07:50:18 PM 35.8637 -85.4794 160° South 429 494 37,000  Level FlightAware ADS-B
Fri 07:50:49 PM 35.8063 -85.4527 159° South 428 493 37,000  Level FlightAware ADS-B
Fri 07:51:19 PM 35.7494 -85.4267 160° South 427 491 37,000  Level FlightAware ADS-B
Fri 07:51:50 PM 35.6934 -85.4010 160° South 426 490 37,000  Level FlightAware ADS-B
Fri 07:52:21 PM 35.6364 -85.3747 159° South 427 491 37,000  Level FlightAware ADS-B
Fri 07:52:56 PM 35.5850 -85.3510 159° South 37,000  Level FlightAware ADS-B
Fri 07:53:12 PM 35.5402 -85.3307 160° South 427 491 37,000  Level FlightAware ADS-B
Fri 07:53:43 PM 35.4834 -85.3047 160° South 427 491 37,000  Level FlightAware ADS-B
Fri 07:54:14 PM 35.4256 -85.2784 160° South 428 493 37,000  Level FlightAware ADS-B
Fri 07:54:46 PM 35.3674 -85.2519 160° South 428 493 37,000  Level FlightAware ADS-B
Fri 07:55:18 PM 35.3084 -85.2252 160° South 428 493 37,000  Level FlightAware ADS-B
Fri 07:55:51 PM 35.2461 -85.1968 160° South 428 493 37,000  Level FlightAware ADS-B
Fri 07:56:31 PM 35.1720 -85.1633 160° South 428 493 37,000  Level FlightAware ADS-B
Fri 07:57:01 PM 35.1159 -85.1380 160° South 428 493 37,000  Level FlightAware ADS-B
Fri 07:57:31 PM 35.0650 -85.1150 160° South 428 493 37,000  Level FlightAware ADS-B
Fri 07:57:57 PM 35.0129 -85.0913 160° South 428 493 37,000  Level FlightAware ADS-B
Fri 07:58:42 PM 34.9294 -85.0537 160° South 427 491 37,000  Level FlightAware ADS-B
Fri 07:59:45 PM 34.8115 -85.0009 160° South 427 491 37,000  Level FlightAware ADS-B
Fri 08:00:17 PM 34.7534 -84.9748 160° South 428 493 37,000  Level FlightAware ADS-B
Fri 08:00:55 PM 34.6827 -84.9431 160° South 428 493 37,000  Level FlightAware ADS-B
Fri 08:01:26 PM 34.6310 -84.9200 160° South 425 489 37,000  Level FlightAware ADS-B
Fri 08:02:11 PM 34.5480 -84.8830 160° South 425 489 37,000  Level FlightAware ADS-B
Fri 08:02:51 PM 34.4770 -84.8510 160° South 416 479 37,000  Level FlightAware ADS-B
Fri 08:03:36 PM 34.3950 -84.8150 160° South 424 488 37,000  Level FlightAware ADS-B
Fri 08:04:16 PM 34.3240 -84.7830 160° South 425 489 37,000  Level FlightAware ADS-B
Fri 08:04:56 PM 34.2470 -84.7490 160° South 425 489 37,000  Level FlightAware ADS-B
Fri 08:05:41 PM 34.1640 -84.7120 160° South 428 493 37,000  Level FlightAware ADS-B
Fri 08:06:21 PM 34.0860 -84.6780 160° South 430 495 37,000  Level FlightAware ADS-B
Fri 08:07:06 PM 34.0040 -84.6420 160° South 431 496 37,000  Level FlightAware ADS-B
Fri 08:07:46 PM 33.9290 -84.6090 160° South 432 497 37,000  Level FlightAware ADS-B
Fri 08:08:31 PM 33.8440 -84.5720 160° South 432 497 37,000  Level FlightAware ADS-B
Fri 08:09:11 PM 33.7700 -84.5390 160° South 428 493 37,000  Level FlightAware ADS-B
Fri 08:09:46 PM 33.7050 -84.5110 160° South 414 476 37,000  Level FlightAware ADS-B
Fri 08:10:36 PM 33.6110 -84.4700 160° South 412 474 37,000  Level FlightAware ADS-B
Fri 08:11:09 PM 33.5449 -84.4413 160° South 419 482 37,000  Level FlightAware ADS-B
Fri 08:11:43 PM 33.4827 -84.4143 160° South 419 482 37,000  Level FlightAware ADS-B
Fri 08:12:15 PM 33.4249 -84.3892 160° South 412 474 37,000  Level FlightAware ADS-B
Fri 08:13:15 PM 33.3194 -84.3436 160° South 411 473 37,000  Level FlightAware ADS-B
Fri 08:14:06 PM 33.2370 -84.3080 160° South 407 468 37,000  Level FlightAware ADS-B
Fri 08:15:31 PM 33.0860 -84.2430 160° South 390 449 37,000  Level FlightAware ADS-B
Fri 08:16:41 PM 32.9700 -84.1940 160° South 376 433 37,000  Level FlightAware ADS-B
Fri 08:17:11 PM 32.9270 -84.1750 160° South 375 432 37,000  Level FlightAware ADS-B
Fri 08:18:01 PM 32.8420 -84.1380 160° South 381 438 37,000  Level FlightAware ADS-B
Fri 08:18:41 PM 32.7780 -84.1120 161° South 379 436 37,000  Level FlightAware ADS-B
Fri 08:19:41 PM 32.6700 -84.0660 160° South 379 436 37,000  Level FlightAware ADS-B
Fri 08:20:16 PM 32.6200 -84.0440 160° South 379 436 37,000  Level FlightAware ADS-B
Fri 08:21:06 PM 32.5500 -84.0140 160° South 379 436 37,000  Level FlightAware ADS-B
Fri 08:21:46 PM 32.4940 -83.9890 159° South 379 436 37,000  Level FlightAware ADS-B
Fri 08:22:26 PM 32.4380 -83.9650 160° South 379 436 37,000  Level FlightAware ADS-B
Fri 08:23:06 PM 32.3820 -83.9410 160° South 379 436 37,000  Level FlightAware ADS-B
Fri 08:23:56 PM 32.3120 -83.9110 160° South 379 436 37,000  Level FlightAware ADS-B
Fri 08:24:36 PM 32.2560 -83.8870 160° South 379 436 37,000  Level FlightAware ADS-B
Fri 08:25:16 PM 32.2000 -83.8630 160° South 379 436 37,000  Level FlightAware ADS-B
Fri 08:25:56 PM 32.1440 -83.8390 160° South 379 436 37,000  Level FlightAware ADS-B
Fri 08:26:36 PM 32.0880 -83.8150 160° South 379 436 37,000  Level FlightAware ADS-B
Fri 08:27:26 PM 32.0180 -83.7840 159° South 379 436 37,000  Level FlightAware ADS-B
Fri 08:28:06 PM 31.9620 -83.7600 160° South 379 436 37,000  Level FlightAware ADS-B
Fri 08:28:46 PM 31.9060 -83.7360 160° South 379 436 37,000  Level FlightAware ADS-B
Fri 08:29:26 PM 31.8500 -83.7120 160° South 379 436 37,000  Level FlightAware ADS-B
Fri 08:30:04 PM 31.6300 -83.6244 160° South 385 443 37,000  Level Jacksonville Center
Fri 08:31:04 PM 31.5217 -83.5847 163° South 392 451 37,000  Level Jacksonville Center
Fri 08:32:04 PM 31.4217 -83.5425 160° South 392 451 37,000  Level Jacksonville Center
Fri 08:33:04 PM 31.3194 -83.5006 161° South 392 451 37,000  Level Jacksonville Center
Fri 08:34:04 PM 31.2172 -83.4611 162° South 387 445 37,000  Level Jacksonville Center
Fri 08:35:04 PM 31.1153 -83.4167 160° South 387 445 37,000  Level Jacksonville Center
Fri 08:36:04 PM 31.0111 -83.3750 161° South 387 445 37,000  Level Jacksonville Center
Fri 08:37:04 PM 30.9006 -83.3283 160° South 387 445 37,000  Level Jacksonville Center
Fri 08:38:04 PM 30.8108 -83.2892 159° South 387 445 37,000 -50 Level Jacksonville Center
Fri 08:39:04 PM 30.7044 -83.2406 159° South 387 445 36,900  Descending Jacksonville Center
Fri 08:40:04 PM 30.6022 -83.1894 157° South 393 452 37,000  Climbing Jacksonville Center
Fri 08:41:04 PM 30.5003 -83.1361 156° South 399 459 36,900  Descending Jacksonville Center
Fri 08:42:04 PM 30.3958 -83.0828 156° South 399 459 37,000 50 Climbing Jacksonville Center
Fri 08:43:04 PM 30.2914 -83.0344 158° South 399 459 37,000  Level Jacksonville Center
Fri 08:44:04 PM 30.1872 -82.9814 156° South 405 466 37,000  Level Jacksonville Center
Fri 08:49:36 PM 29.5800 -82.6830 156° South 424 488 37,000  Level FlightAware ADS-B
Fri 08:50:16 PM 29.5100 -82.6490 157° South 426 490 37,000  Level FlightAware ADS-B
Fri 08:51:01 PM 29.4340 -82.6220 163° South 409 471 37,000  Level FlightAware ADS-B
Fri 08:51:41 PM 29.3540 -82.6050 170° South 409 471 37,000  Level FlightAware ADS-B
Fri 08:52:21 PM 29.2800 -82.5900 170° South 411 473 37,000  Level FlightAware ADS-B
Fri 08:53:06 PM 29.1850 -82.5700 170° South 420 483 37,000  Level FlightAware ADS-B
Fri 08:53:46 PM 29.1100 -82.5540 169° South 420 483 37,000  Level FlightAware ADS-B
Fri 08:54:26 PM 29.0340 -82.5390 170° South 421 484 37,000  Level FlightAware ADS-B
Fri 08:55:11 PM 28.9470 -82.5200 169° South 422 486 37,000  Level FlightAware ADS-B
Fri 08:55:51 PM 28.8710 -82.5050 170° South 421 484 37,000  Level FlightAware ADS-B
Fri 08:56:36 PM 28.7850 -82.4870 170° South 420 483 37,000  Level FlightAware ADS-B
Fri 08:57:16 PM 28.7080 -82.4710 170° South 420 483 37,000  Level FlightAware ADS-B
Fri 08:57:56 PM 28.6290 -82.4540 169° South 420 483 37,000  Level FlightAware ADS-B
Fri 08:58:41 PM 28.5430 -82.4370 170° South 420 483 37,000  Level FlightAware ADS-B
Fri 08:59:21 PM 28.4670 -82.4210 170° South 421 484 37,000  Level FlightAware ADS-B
Fri 09:00:06 PM 28.3820 -82.4030 169° South 421 484 37,000  Level FlightAware ADS-B
Fri 09:00:46 PM 28.3050 -82.3880 170° South 421 484 37,000  Level FlightAware ADS-B
Fri 09:01:26 PM 28.2260 -82.3710 169° South 420 483 37,000  Level FlightAware ADS-B
Fri 09:02:11 PM 28.1410 -82.3540 170° South 421 484 37,000  Level FlightAware ADS-B
Fri 09:02:51 PM 28.0650 -82.3380 169° South 422 486 37,000  Level FlightAware ADS-B
Fri 09:03:31 PM 27.9870 -82.3220 170° South 423 487 37,000  Level FlightAware ADS-B
Fri 09:04:16 PM 27.8980 -82.3040 170° South 425 489 37,000  Level FlightAware ADS-B
Fri 09:04:56 PM 27.8230 -82.2890 170° South 425 489 37,000 -565 Level FlightAware ADS-B
Fri 09:05:41 PM 27.7360 -82.2710 170° South 415 478 36,200 -1,059 Descending FlightAware ADS-B
Fri 09:06:21 PM 27.6590 -82.2560 170° South 428 493 35,500 -988 Descending FlightAware ADS-B
Fri 09:07:06 PM 27.5680 -82.2370 170° South 433 498 34,800 -918 Descending FlightAware ADS-B
Fri 09:07:46 PM 27.4930 -82.2220 170° South 435 501 34,200 -900 Descending FlightAware ADS-B
Fri 09:08:26 PM 27.4130 -82.2060 170° South 440 506 33,600 -918 Descending FlightAware ADS-B
Fri 09:09:11 PM 27.3260 -82.1650 157° South 459 528 32,900 -918 Descending FlightAware ADS-B
Fri 09:09:51 PM 27.2580 -82.1100 144° Southeast 466 536 32,300 -988 Descending FlightAware ADS-B
Fri 09:10:36 PM 27.1740 -82.0420 144° Southeast 462 532 31,500 -988 Descending FlightAware ADS-B
Fri 09:11:16 PM 27.1100 -81.9900 144° Southeast 459 528 30,900 -975 Descending FlightAware ADS-B
Fri 09:11:56 PM 27.0390 -81.9340 145° Southeast 465 535 30,200 -988 Descending FlightAware ADS-B
Fri 09:12:41 PM 26.9570 -81.8680 144° Southeast 474 545 29,500 -988 Descending FlightAware ADS-B
Fri 09:13:21 PM 26.8860 -81.8110 144° Southeast 469 540 28,800 -1,059 Descending FlightAware ADS-B
Fri 09:14:06 PM 26.8090 -81.7500 145° Southeast 455 524 28,000 -988 Descending FlightAware ADS-B
Fri 09:14:46 PM 26.7460 -81.6990 144° Southeast 441 507 27,400 -480 Descending FlightAware ADS-B
Fri 09:15:21 PM 26.6910 -81.6550 144° Southeast 441 507 27,400  Level FlightAware ADS-B
Fri 09:16:11 PM 26.6210 -81.5980 144° Southeast 441 507 27,400  Level FlightAware ADS-B
Fri 09:16:51 PM 26.5650 -81.5520 144° Southeast 441 507 27,400 -2,188 Level FlightAware ADS-B
Fri 09:17:36 PM 26.4710 -81.4800 146° Southeast 422 486 24,300 -2,188 Descending FlightAware ADS-B
Fri 09:18:16 PM 26.4170 -81.4360 144° Southeast 422 486 24,300  Level FlightAware ADS-B
Fri 09:18:56 PM 26.3640 -81.3930 144° Southeast 422 486 24,300  Level FlightAware ADS-B
Fri 09:19:36 PM 26.3100 -81.3490 144° Southeast 422 486 24,300  Level FlightAware ADS-B
Fri 09:20:16 PM 26.2560 -81.3050 144° Southeast 422 486 24,300 -9,106 Level FlightAware ADS-B
Fri 09:21:01 PM 26.2110 -81.1660 110° East 366 421 11,400 -9,741 Descending FlightAware ADS-B
Fri 09:21:41 PM 26.1810 -81.1080 120° Southeast 331 381 10,500 -1,129 Descending FlightAware ADS-B
Fri 09:22:26 PM 26.1590 -81.0390 110° East 302 348 9,800 -1,040 Descending FlightAware ADS-B
Fri 09:22:56 PM 26.1540 -80.9930 97° East 292 336 9,200 -1,457 Descending FlightAware ADS-B
Fri 09:23:36 PM 26.1460 -80.9330 98° East 296 341 8,100 -1,108 Descending FlightAware ADS-B
Fri 09:24:01 PM 26.1420 -80.8990 97° East 296 341 8,000 -109 Descending FlightAware ADS-B
Fri 09:24:31 PM 26.1370 -80.8610 98° East 296 341 8,000  Level FlightAware ADS-B
Fri 09:25:01 PM 26.1320 -80.8220 98° East 296 341 8,000 -2,700 Level FlightAware ADS-B
Fri 09:25:31 PM 26.1250 -80.7600 97° East 289 333 5,300 -2,800 Descending FlightAware ADS-B
Fri 09:26:01 PM 26.1210 -80.7230 97° East 289 333 5,200 -557 Descending FlightAware ADS-B
Fri 09:27:16 PM 26.1070 -80.6160 98° East 4,200 -655 Descending FlightAware ADS-B
Fri 09:27:51 PM 26.1010 -80.5670 98° East 277 319 4,000 -200 Descending FlightAware ADS-B
Fri 09:28:16 PM 26.0960 -80.5280 98° East 255 293 4,000  Level FlightAware ADS-B
Fri 09:28:46 PM 26.0920 -80.4930 97° East 216 249 4,000 -327 Level FlightAware ADS-B
Fri 09:29:11 PM 26.0890 -80.4660 97° East 196 226 3,700 -873 Descending FlightAware ADS-B
Fri 09:29:41 PM 26.0850 -80.4380 99° East 191 220 3,200 -1,200 Descending FlightAware ADS-B
Fri 09:30:11 PM 26.0810 -80.4080 98° East 191 220 2,500 -1,309 Descending FlightAware ADS-B
Fri 09:30:36 PM 26.0780 -80.3830 98° East 191 220 2,000 -545 Descending FlightAware ADS-B
Fri 09:31:06 PM 26.0780 -80.3540 90° East 190 219 2,000  Level FlightAware ADS-B
Fri 09:31:31 PM 26.0780 -80.3300 90° East 186 214 2,000  Level FlightAware ADS-B
Fri 09:32:01 PM 26.0780 -80.3010 90° East 172 198 2,000 -457 Level FlightAware ADS-B
Fri 09:33:16 PM 26.0770 -80.2360 91° East 157 181 1,200 -560 Descending FlightAware ADS-B
Fri 09:34:31 PM 26.0770 -80.1830 90° East 146 168 600 -480 Descending FlightAware ADS-B

Login

Don't have an account? Register now (free) for customized features, flight alerts, and more!